5°C Temp
1°C Dewpoint
76% Humidity
Temperature
13 KM/H
8 MPH
7 KTS
50°
North East

Wind Speed
Clear
Conditions
Pressure 1023.92 (hPa) - 30.24 (in)
Visibility 6.2 (mi) - 10.0 (km)

Current Conditions
EKCH
Location 55(km)
Metar :EKCH 180220Z AUTO 05007KT 9999 NCD 05/01 Q1024 NOSIG
Sun 18th April 04:20 am

Airport
  Metar Aviation API Data Provided by https://www.checkwx.com/ PHP scripts by weather34.com ©2021